Time;durP1;ratioP1;P1;durP2;ratioP2;P2;SDS_P1;SDS_P2;PMS_P1;PMS_P2;Temp;Humidity;BMP_temperature;BMP_pressure;BME280_temperature;BME280_humidity;BME280_pressure;Samples;Min_cycle;Max_cycle;Signal;HPM_P1;HPM_P2
2021/09/07 00:00:09;;;;;;;53.50;30.17;;;;;;;;;;5109790;28;20027;-70
2021/09/07 00:02:35;;;;;;;53.25;30.98;;;;;;;;;;5110317;28;20144;-71
2021/09/07 00:05:01;;;;;;;60.70;33.10;;;;;;;;;;5109564;28;20026;-70
2021/09/07 00:07:27;;;;;;;56.58;32.63;;;;;;;;;;5110215;28;20027;-70
2021/09/07 00:09:53;;;;;;;57.10;32.22;;;;;;;;;;5111016;28;20026;-70
2021/09/07 00:12:20;;;;;;;54.90;32.47;;;;;;;;;;5110136;28;20107;-70
2021/09/07 00:14:46;;;;;;;57.22;31.45;;;;;;;;;;5099947;28;20023;-70
2021/09/07 00:17:13;;;;;;;54.60;31.42;;;;;;;;;;5110194;28;20016;-70
2021/09/07 00:19:39;;;;;;;59.10;31.42;;;;;;;;;;5111351;28;20024;-70
2021/09/07 00:22:06;;;;;;;53.63;31.63;;;;;;;;;;5103487;28;20081;-70
2021/09/07 00:24:32;;;;;;;50.95;30.98;;;;;;;;;;5096960;28;20436;-71
2021/09/07 00:26:58;;;;;;;57.70;32.22;;;;;;;;;;5081611;28;20498;-70
2021/09/07 00:29:25;;;;;;;55.30;32.42;;;;;;;;;;5110410;27;20019;-70
2021/09/07 00:31:51;;;;;;;53.47;31.30;;;;;;;;;;5114074;28;20052;-70
2021/09/07 00:34:17;;;;;;;57.60;33.10;;;;;;;;;;5113624;28;20038;-70
2021/09/07 00:36:43;;;;;;;55.13;31.45;;;;;;;;;;5113405;28;20020;-70
2021/09/07 00:39:12;;;;;;;53.05;30.83;;;;;;;;;;5114413;28;20028;-70
2021/09/07 00:41:42;;;;;;;60.05;32.85;;;;;;;;;;5113408;28;20106;-70
2021/09/07 00:44:15;;;;;;;59.42;32.22;;;;;;;;;;5113551;28;20051;-71
2021/09/07 00:46:42;;;;;;;64.53;34.20;;;;;;;;;;5113404;28;20039;-70
2021/09/07 00:49:08;;;;;;;61.83;34.72;;;;;;;;;;5114544;28;21003;-70
2021/09/07 00:51:35;;;;;;;63.40;35.08;;;;;;;;;;5092406;28;20067;-71
2021/09/07 00:54:01;;;;;;;66.05;36.60;;;;;;;;;;5072714;28;20020;-71
2021/09/07 00:56:28;;;;;;;62.85;36.42;;;;;;;;;;5075796;28;20049;-71
2021/09/07 00:58:55;;;;;;;64.45;36.28;;;;;;;;;;5087033;28;20032;-70
2021/09/07 01:01:21;;;;;;;64.35;34.65;;;;;;;;;;5072860;28;20555;-71
2021/09/07 01:03:47;;;;;;;66.45;37.10;;;;;;;;;;5077438;28;20028;-70
2021/09/07 01:06:13;;;;;;;54.55;33.88;;;;;;;;;;5074717;28;20033;-70
2021/09/07 01:08:39;;;;;;;65.30;36.40;;;;;;;;;;5073602;28;20020;-70
2021/09/07 01:11:05;;;;;;;61.20;36.03;;;;;;;;;;5074627;28;20028;-70
2021/09/07 01:13:31;;;;;;;64.65;37.15;;;;;;;;;;5079405;28;20471;-70
2021/09/07 01:15:57;;;;;;;61.38;35.47;;;;;;;;;;5083905;28;20032;-70
2021/09/07 01:18:23;;;;;;;58.70;34.63;;;;;;;;;;5073079;28;20064;-70
2021/09/07 01:20:49;;;;;;;65.38;34.95;;;;;;;;;;5074031;28;20049;-70
2021/09/07 01:23:15;;;;;;;64.30;35.45;;;;;;;;;;5083020;28;20052;-71
2021/09/07 01:25:41;;;;;;;67.32;35.60;;;;;;;;;;5076666;28;20032;-70
2021/09/07 01:28:12;;;;;;;62.00;35.17;;;;;;;;;;5073992;28;20032;-70
2021/09/07 01:30:38;;;;;;;66.28;36.40;;;;;;;;;;5069752;28;20025;-70
2021/09/07 01:33:04;;;;;;;67.18;36.13;;;;;;;;;;5075676;28;20029;-70
2021/09/07 01:35:30;;;;;;;67.47;37.03;;;;;;;;;;5074747;28;20023;-71
2021/09/07 01:37:57;;;;;;;69.53;38.75;;;;;;;;;;5073813;28;20020;-70
2021/09/07 01:40:23;;;;;;;66.30;35.63;;;;;;;;;;5058893;28;20024;-70
2021/09/07 01:42:49;;;;;;;67.10;35.58;;;;;;;;;;5082470;28;20024;-70
2021/09/07 01:45:15;;;;;;;66.32;36.53;;;;;;;;;;5082144;28;20017;-71
2021/09/07 01:47:42;;;;;;;62.70;33.90;;;;;;;;;;5072555;28;20493;-71
2021/09/07 01:50:08;;;;;;;63.17;36.03;;;;;;;;;;5077624;28;20013;-70
2021/09/07 01:52:35;;;;;;;62.42;35.28;;;;;;;;;;5107140;28;20059;-70
2021/09/07 01:55:01;;;;;;;64.25;35.30;;;;;;;;;;5110855;28;20512;-70
2021/09/07 01:57:27;;;;;;;63.58;34.13;;;;;;;;;;5113022;28;20027;-70
2021/09/07 01:59:53;;;;;;;63.25;36.33;;;;;;;;;;5112410;28;20016;-70
2021/09/07 02:02:19;;;;;;;59.55;34.10;;;;;;;;;;5112208;28;20509;-70
2021/09/07 02:04:46;;;;;;;62.53;34.40;;;;;;;;;;5112163;28;20023;-70
2021/09/07 02:07:13;;;;;;;61.47;34.40;;;;;;;;;;5110767;28;20110;-70
2021/09/07 02:09:39;;;;;;;69.03;37.03;;;;;;;;;;5110965;28;20597;-71
2021/09/07 02:12:07;;;;;;;64.97;33.75;;;;;;;;;;5112023;28;20032;-70
2021/09/07 02:14:33;;;;;;;64.63;36.75;;;;;;;;;;5111345;28;20492;-70
2021/09/07 02:16:59;;;;;;;72.80;36.80;;;;;;;;;;5092970;28;20032;-70
2021/09/07 02:19:25;;;;;;;72.75;38.25;;;;;;;;;;5094125;28;20031;-71
2021/09/07 02:21:51;;;;;;;71.82;38.97;;;;;;;;;;5111519;28;20059;-70
2021/09/07 02:24:18;;;;;;;68.72;35.67;;;;;;;;;;5111391;28;20026;-71
2021/09/07 02:26:44;;;;;;;64.30;35.55;;;;;;;;;;5111499;28;20024;-70
2021/09/07 02:29:10;;;;;;;66.03;36.42;;;;;;;;;;5112192;28;20027;-70
2021/09/07 02:31:36;;;;;;;69.30;35.97;;;;;;;;;;5110421;28;20106;-70
2021/09/07 02:34:02;;;;;;;64.15;35.78;;;;;;;;;;5111240;28;20096;-70
2021/09/07 02:36:28;;;;;;;64.50;35.80;;;;;;;;;;5112143;28;20031;-70
2021/09/07 02:38:54;;;;;;;62.88;35.08;;;;;;;;;;5109536;28;20029;-70
2021/09/07 02:41:21;;;;;;;66.40;35.53;;;;;;;;;;5111117;28;20024;-71
2021/09/07 02:43:47;;;;;;;62.22;34.97;;;;;;;;;;5106954;28;20024;-70
2021/09/07 02:46:13;;;;;;;62.35;35.13;;;;;;;;;;5110233;28;20031;-70
2021/09/07 02:48:40;;;;;;;64.03;35.78;;;;;;;;;;5111949;28;20216;-70
2021/09/07 02:51:06;;;;;;;68.03;34.20;;;;;;;;;;5111043;28;20023;-70
2021/09/07 02:53:32;;;;;;;61.33;33.85;;;;;;;;;;5112300;28;20034;-70
2021/09/07 02:55:58;;;;;;;62.85;34.83;;;;;;;;;;5109911;28;20020;-70
2021/09/07 02:58:24;;;;;;;63.40;36.25;;;;;;;;;;5112352;28;20115;-70
2021/09/07 03:00:50;;;;;;;69.10;37.42;;;;;;;;;;5110344;28;20052;-70
2021/09/07 03:03:16;;;;;;;69.88;36.88;;;;;;;;;;5112016;28;20050;-70
2021/09/07 03:05:42;;;;;;;60.72;33.67;;;;;;;;;;5109664;28;20077;-70
2021/09/07 03:08:08;;;;;;;65.63;34.13;;;;;;;;;;5112002;28;20016;-70
2021/09/07 03:10:34;;;;;;;60.67;34.65;;;;;;;;;;5091710;28;20107;-70
2021/09/07 03:13:00;;;;;;;62.22;35.42;;;;;;;;;;5103020;28;20019;-70
2021/09/07 03:15:27;;;;;;;62.85;34.20;;;;;;;;;;5091647;28;20027;-70
2021/09/07 03:17:53;;;;;;;62.05;35.13;;;;;;;;;;5092802;28;20031;-70
2021/09/07 03:20:19;;;;;;;66.13;35.00;;;;;;;;;;5110571;28;20040;-70
2021/09/07 03:22:45;;;;;;;59.10;33.60;;;;;;;;;;5099754;28;20031;-70
2021/09/07 03:25:12;;;;;;;61.53;34.53;;;;;;;;;;5097910;28;20028;-70
2021/09/07 03:27:38;;;;;;;60.33;34.22;;;;;;;;;;5110997;28;20511;-70
2021/09/07 03:30:04;;;;;;;70.97;36.63;;;;;;;;;;5110871;28;20152;-69
2021/09/07 03:32:30;;;;;;;64.40;35.90;;;;;;;;;;5110767;28;20031;-71
2021/09/07 03:34:56;;;;;;;61.38;34.20;;;;;;;;;;5087430;28;20027;-70
2021/09/07 03:37:22;;;;;;;59.45;33.75;;;;;;;;;;5110929;28;20163;-70
2021/09/07 03:39:48;;;;;;;63.90;35.38;;;;;;;;;;5110144;28;20047;-70
2021/09/07 03:42:14;;;;;;;61.97;35.35;;;;;;;;;;5109970;28;20019;-70
2021/09/07 03:44:40;;;;;;;60.60;34.03;;;;;;;;;;5110449;28;20020;-70
2021/09/07 03:47:06;;;;;;;71.82;36.45;;;;;;;;;;5110456;28;20090;-70
2021/09/07 03:49:32;;;;;;;60.47;35.15;;;;;;;;;;5092588;28;20027;-70
2021/09/07 03:51:58;;;;;;;68.70;36.08;;;;;;;;;;5109584;28;20043;-70
2021/09/07 03:54:24;;;;;;;72.43;36.65;;;;;;;;;;5110072;28;20054;-70
2021/09/07 03:56:50;;;;;;;64.03;34.78;;;;;;;;;;5111072;28;20023;-70
2021/09/07 03:59:16;;;;;;;71.90;37.55;;;;;;;;;;5111129;28;20405;-70
2021/09/07 04:01:42;;;;;;;71.82;37.35;;;;;;;;;;5091012;28;20051;-70
2021/09/07 04:04:10;;;;;;;61.42;34.92;;;;;;;;;;5091258;28;20055;-70
2021/09/07 04:06:37;;;;;;;65.72;36.55;;;;;;;;;;5110067;28;20023;-70
2021/09/07 04:09:03;;;;;;;66.82;36.58;;;;;;;;;;5109926;28;20052;-70
2021/09/07 04:11:29;;;;;;;66.10;37.03;;;;;;;;;;5109987;28;20020;-70
2021/09/07 04:13:55;;;;;;;69.95;38.60;;;;;;;;;;5091837;28;20020;-70
2021/09/07 04:16:21;;;;;;;71.15;36.58;;;;;;;;;;5109734;28;20038;-70
2021/09/07 04:18:47;;;;;;;67.90;39.13;;;;;;;;;;5110829;28;20392;-70
2021/09/07 04:21:13;;;;;;;69.32;37.90;;;;;;;;;;5107285;28;20031;-70
2021/09/07 04:23:39;;;;;;;65.70;35.60;;;;;;;;;;5108452;28;20033;-70
2021/09/07 04:26:05;;;;;;;73.50;39.05;;;;;;;;;;5104232;28;20529;-70
2021/09/07 04:28:32;;;;;;;73.95;40.53;;;;;;;;;;5110891;28;20076;-70
2021/09/07 04:30:58;;;;;;;73.72;39.90;;;;;;;;;;5106867;28;20033;-70
2021/09/07 04:33:24;;;;;;;72.82;38.53;;;;;;;;;;5102166;28;20020;-70
2021/09/07 04:35:50;;;;;;;74.13;38.92;;;;;;;;;;5109272;28;20062;-70
2021/09/07 04:38:16;;;;;;;72.53;39.08;;;;;;;;;;5103456;28;20020;-70
2021/09/07 04:40:42;;;;;;;67.40;36.45;;;;;;;;;;5087205;28;20024;-70
2021/09/07 04:43:08;;;;;;;73.47;40.38;;;;;;;;;;5105767;28;20031;-70
2021/09/07 04:45:34;;;;;;;76.28;40.58;;;;;;;;;;5087651;28;20036;-70
2021/09/07 04:48:00;;;;;;;71.05;38.38;;;;;;;;;;5108667;28;20027;-70
2021/09/07 04:50:26;;;;;;;73.25;39.95;;;;;;;;;;5109345;28;20024;-70
2021/09/07 04:52:52;;;;;;;73.47;40.60;;;;;;;;;;5108368;28;20051;-70
2021/09/07 04:55:18;;;;;;;68.88;37.95;;;;;;;;;;5108914;28;20023;-71
2021/09/07 04:57:44;;;;;;;67.65;38.88;;;;;;;;;;5108719;28;20020;-71
2021/09/07 05:00:10;;;;;;;69.30;39.22;;;;;;;;;;5109759;28;20023;-70
2021/09/07 05:02:37;;;;;;;76.30;40.60;;;;;;;;;;5108911;28;20704;-70
2021/09/07 05:05:04;;;;;;;72.43;40.75;;;;;;;;;;5109118;28;20020;-70
2021/09/07 05:07:30;;;;;;;72.28;39.83;;;;;;;;;;5106003;28;20016;-70
2021/09/07 05:09:56;;;;;;;75.00;39.85;;;;;;;;;;5106788;28;20211;-70
2021/09/07 05:12:24;;;;;;;80.05;41.63;;;;;;;;;;5106165;28;20501;-71
2021/09/07 05:14:50;;;;;;;74.50;39.80;;;;;;;;;;5094539;28;20028;-70
2021/09/07 05:17:16;;;;;;;71.00;40.90;;;;;;;;;;5105345;28;21483;-70
2021/09/07 05:19:42;;;;;;;74.05;40.53;;;;;;;;;;5112448;28;20520;-70
2021/09/07 05:22:08;;;;;;;69.57;36.78;;;;;;;;;;5112383;28;20051;-70
2021/09/07 05:24:34;;;;;;;75.65;41.60;;;;;;;;;;5106081;28;20036;-70
2021/09/07 05:27:00;;;;;;;72.18;40.50;;;;;;;;;;5105755;27;20061;-70
2021/09/07 05:29:26;;;;;;;73.22;40.05;;;;;;;;;;5094371;28;20072;-70
2021/09/07 05:31:52;;;;;;;79.00;40.13;;;;;;;;;;5105785;28;20027;-70
2021/09/07 05:34:18;;;;;;;75.10;39.58;;;;;;;;;;5112225;28;20020;-70
2021/09/07 05:36:44;;;;;;;76.10;41.30;;;;;;;;;;5107139;28;20023;-70
2021/09/07 05:39:10;;;;;;;67.72;37.85;;;;;;;;;;5111622;28;20032;-70
2021/09/07 05:41:36;;;;;;;79.18;41.13;;;;;;;;;;5110618;28;20111;-70
2021/09/07 05:44:02;;;;;;;75.90;40.92;;;;;;;;;;5111005;28;20020;-70
2021/09/07 05:46:28;;;;;;;71.50;40.75;;;;;;;;;;5103383;28;20064;-70
2021/09/07 05:48:54;;;;;;;76.03;40.63;;;;;;;;;;5107809;28;20061;-70
2021/09/07 05:51:21;;;;;;;77.03;41.03;;;;;;;;;;5111932;28;20481;-70
2021/09/07 05:53:47;;;;;;;75.07;40.20;;;;;;;;;;5112009;28;20028;-70
2021/09/07 05:56:14;;;;;;;80.05;42.53;;;;;;;;;;5108866;28;20304;-70
2021/09/07 05:58:40;;;;;;;74.15;39.55;;;;;;;;;;5110974;28;20115;-70
2021/09/07 06:01:06;;;;;;;73.85;40.78;;;;;;;;;;5108871;28;20084;-70
2021/09/07 06:03:32;;;;;;;75.22;38.45;;;;;;;;;;5111274;28;20016;-70
2021/09/07 06:05:58;;;;;;;67.22;37.80;;;;;;;;;;5107147;28;20035;-70
2021/09/07 06:08:24;;;;;;;79.25;41.30;;;;;;;;;;5110767;28;20483;-70
2021/09/07 06:10:51;;;;;;;77.53;40.38;;;;;;;;;;5111711;27;20500;-70
2021/09/07 06:13:17;;;;;;;76.63;41.85;;;;;;;;;;5108588;28;20012;-70
2021/09/07 06:15:43;;;;;;;77.15;39.95;;;;;;;;;;5091707;28;20500;-70
2021/09/07 06:18:09;;;;;;;77.55;39.70;;;;;;;;;;5108564;28;20015;-70
2021/09/07 06:20:35;;;;;;;76.38;41.83;;;;;;;;;;5093818;28;20031;-70
2021/09/07 06:23:01;;;;;;;72.30;39.35;;;;;;;;;;5109293;28;20088;-70
2021/09/07 06:25:27;;;;;;;73.90;40.22;;;;;;;;;;5089341;28;20031;-70
2021/09/07 06:27:53;;;;;;;71.97;38.00;;;;;;;;;;5105815;28;20023;-70
2021/09/07 06:30:19;;;;;;;74.90;39.88;;;;;;;;;;5112076;28;20451;-70
2021/09/07 06:32:45;;;;;;;76.55;41.65;;;;;;;;;;5111847;28;20473;-70
2021/09/07 06:35:11;;;;;;;73.00;40.95;;;;;;;;;;5112029;28;20011;-70
2021/09/07 06:37:38;;;;;;;82.93;44.63;;;;;;;;;;5087216;28;20401;-70
2021/09/07 06:40:05;;;;;;;72.88;42.40;;;;;;;;;;5112010;28;20051;-71
2021/09/07 06:42:31;;;;;;;91.88;46.58;;;;;;;;;;5092159;28;20039;-70
2021/09/07 06:44:57;;;;;;;83.75;45.40;;;;;;;;;;5101243;28;21232;-70
2021/09/07 06:47:23;;;;;;;95.65;49.05;;;;;;;;;;5103180;28;20031;-70
2021/09/07 06:49:49;;;;;;;82.38;46.47;;;;;;;;;;5104535;28;20034;-70
2021/09/07 06:52:15;;;;;;;81.28;44.13;;;;;;;;;;5109248;27;20051;-69
2021/09/07 06:54:41;;;;;;;86.18;47.38;;;;;;;;;;5100975;28;20039;-70
2021/09/07 06:57:07;;;;;;;90.22;49.08;;;;;;;;;;5108821;28;20036;-70
2021/09/07 06:59:34;;;;;;;98.15;50.97;;;;;;;;;;5108380;28;20028;-69
2021/09/07 07:02:00;;;;;;;96.88;51.40;;;;;;;;;;5087785;28;20448;-70
2021/09/07 07:04:26;;;;;;;86.85;47.60;;;;;;;;;;5109710;28;20473;-69
2021/09/07 07:06:52;;;;;;;91.00;50.10;;;;;;;;;;5108717;28;20492;-69
2021/09/07 07:09:18;;;;;;;86.63;49.15;;;;;;;;;;5091058;28;20873;-69
2021/09/07 07:11:44;;;;;;;92.43;49.38;;;;;;;;;;5108304;28;20050;-70
2021/09/07 07:14:10;;;;;;;96.65;52.75;;;;;;;;;;5088571;28;20397;-70
2021/09/07 07:16:36;;;;;;;93.28;49.45;;;;;;;;;;5105786;28;20015;-69
2021/09/07 07:19:02;;;;;;;95.95;52.25;;;;;;;;;;5108326;28;20024;-70
2021/09/07 07:21:29;;;;;;;92.43;49.42;;;;;;;;;;5107705;28;20550;-71
2021/09/07 07:23:55;;;;;;;98.70;52.28;;;;;;;;;;5106215;28;20519;-70
2021/09/07 07:26:21;;;;;;;87.60;49.65;;;;;;;;;;5105403;28;20339;-71
2021/09/07 07:28:47;;;;;;;91.15;50.15;;;;;;;;;;5107624;28;20020;-70
2021/09/07 07:31:13;;;;;;;87.45;50.35;;;;;;;;;;5107798;28;20028;-70
2021/09/07 07:33:39;;;;;;;87.93;50.47;;;;;;;;;;5108192;28;20027;-70
2021/09/07 07:36:05;;;;;;;87.20;47.58;;;;;;;;;;5105765;28;20316;-70
2021/09/07 07:38:31;;;;;;;85.35;50.22;;;;;;;;;;5109495;28;20027;-70
2021/09/07 07:40:58;;;;;;;83.78;50.40;;;;;;;;;;5106856;28;20038;-70
2021/09/07 07:43:25;;;;;;;85.80;49.58;;;;;;;;;;5103930;28;20462;-70
2021/09/07 07:45:51;;;;;;;91.60;49.63;;;;;;;;;;5083629;28;20047;-70
2021/09/07 07:48:18;;;;;;;78.22;46.80;;;;;;;;;;5107871;28;20020;-70
2021/09/07 07:50:44;;;;;;;80.15;48.17;;;;;;;;;;5081401;28;20126;-71
2021/09/07 07:53:10;;;;;;;77.05;45.63;;;;;;;;;;5086474;28;20094;-71
2021/09/07 07:55:36;;;;;;;75.82;42.75;;;;;;;;;;5107225;27;20024;-71
2021/09/07 07:58:02;;;;;;;70.13;43.03;;;;;;;;;;5086373;28;20068;-70
2021/09/07 08:00:28;;;;;;;65.63;40.83;;;;;;;;;;5100711;28;20523;-71
2021/09/07 08:02:54;;;;;;;75.35;41.90;;;;;;;;;;5104272;28;20036;-71
2021/09/07 08:05:20;;;;;;;64.57;39.75;;;;;;;;;;5107822;28;20032;-70
2021/09/07 08:07:46;;;;;;;64.72;38.72;;;;;;;;;;5106569;28;20027;-70
2021/09/07 08:10:12;;;;;;;60.42;36.03;;;;;;;;;;5096812;28;20024;-70
2021/09/07 08:12:39;;;;;;;59.72;35.40;;;;;;;;;;5089880;28;20027;-69
2021/09/07 08:15:05;;;;;;;57.95;34.50;;;;;;;;;;5109715;28;20053;-70
2021/09/07 08:17:31;;;;;;;59.22;35.08;;;;;;;;;;5107418;28;20048;-70
2021/09/07 08:19:57;;;;;;;52.92;32.10;;;;;;;;;;5108681;28;20027;-70
2021/09/07 08:22:23;;;;;;;49.33;31.02;;;;;;;;;;5108808;28;20023;-70
2021/09/07 08:24:50;;;;;;;49.65;30.50;;;;;;;;;;5106566;28;20488;-70
2021/09/07 08:27:16;;;;;;;50.50;30.33;;;;;;;;;;5087828;28;20074;-69
2021/09/07 08:29:42;;;;;;;46.50;29.48;;;;;;;;;;5106383;28;20020;-70
2021/09/07 08:32:09;;;;;;;41.13;27.38;;;;;;;;;;5107953;28;20469;-70
2021/09/07 08:34:35;;;;;;;51.63;28.77;;;;;;;;;;5090388;28;20101;-70
2021/09/07 08:37:02;;;;;;;44.13;27.20;;;;;;;;;;5106088;28;20028;-70
2021/09/07 08:39:28;;;;;;;44.97;27.85;;;;;;;;;;5109193;28;20036;-69
2021/09/07 08:41:54;;;;;;;46.35;26.73;;;;;;;;;;5107480;28;20523;-69
2021/09/07 08:44:21;;;;;;;51.92;28.23;;;;;;;;;;5107389;28;20106;-70
2021/09/07 08:46:48;;;;;;;47.47;26.95;;;;;;;;;;5107277;28;20019;-69
2021/09/07 08:49:14;;;;;;;41.42;24.65;;;;;;;;;;5093731;28;20016;-69
2021/09/07 08:51:41;;;;;;;47.95;26.40;;;;;;;;;;5092733;28;20184;-70
2021/09/07 08:54:07;;;;;;;42.72;25.48;;;;;;;;;;5109151;28;20031;-69
2021/09/07 08:56:33;;;;;;;37.35;23.23;;;;;;;;;;5108988;28;20069;-70
2021/09/07 08:58:59;;;;;;;44.38;25.67;;;;;;;;;;5095579;28;20023;-70
2021/09/07 09:01:26;;;;;;;41.20;23.77;;;;;;;;;;5111298;28;20023;-70
2021/09/07 09:03:52;;;;;;;41.67;25.10;;;;;;;;;;5108827;28;20404;-70
2021/09/07 09:06:25;;;;;;;39.15;24.25;;;;;;;;;;5105844;28;20031;-70
2021/09/07 09:09:07;;;;;;;41.85;25.13;;;;;;;;;;5112151;28;20073;-69
2021/09/07 09:11:50;;;;;;;46.20;25.25;;;;;;;;;;5108099;28;20020;-69
2021/09/07 09:14:31;;;;;;;41.70;25.02;;;;;;;;;;5109250;28;20020;-69
2021/09/07 09:16:57;;;;;;;43.78;25.23;;;;;;;;;;5088240;28;20265;-70
2021/09/07 09:19:23;;;;;;;46.85;26.77;;;;;;;;;;5112862;28;20035;-69
2021/09/07 09:21:49;;;;;;;41.95;23.83;;;;;;;;;;5112468;28;20027;-69
2021/09/07 09:24:22;;;;;;;42.30;23.67;;;;;;;;;;5111924;28;20047;-70
2021/09/07 09:26:54;;;;;;;41.20;22.65;;;;;;;;;;5091316;28;20096;-69
2021/09/07 09:29:25;;;;;;;39.15;22.73;;;;;;;;;;5085327;28;20037;-70
2021/09/07 09:31:55;;;;;;;35.90;22.38;;;;;;;;;;5110782;28;20027;-69
2021/09/07 09:34:21;;;;;;;43.55;23.25;;;;;;;;;;5111989;28;20039;-70
2021/09/07 09:37:01;;;;;;;42.38;25.25;;;;;;;;;;5110172;28;20101;-70
2021/09/07 09:39:38;;;;;;;40.88;23.65;;;;;;;;;;5095614;28;20028;-69
2021/09/07 09:42:04;;;;;;;39.03;23.90;;;;;;;;;;5111714;28;20024;-70
2021/09/07 09:44:31;;;;;;;38.97;22.67;;;;;;;;;;5092774;28;20516;-70
2021/09/07 09:46:57;;;;;;;37.22;23.42;;;;;;;;;;5089330;28;20470;-70
2021/09/07 09:49:26;;;;;;;43.40;25.08;;;;;;;;;;5111336;28;20035;-70
2021/09/07 09:51:52;;;;;;;44.03;25.35;;;;;;;;;;5111362;28;20040;-70
2021/09/07 09:54:19;;;;;;;35.88;23.33;;;;;;;;;;5111918;28;20040;-69
2021/09/07 09:56:45;;;;;;;38.42;23.10;;;;;;;;;;5110711;28;20034;-69
2021/09/07 09:59:11;;;;;;;43.45;25.58;;;;;;;;;;5111195;28;20030;-70
2021/09/07 10:01:38;;;;;;;39.08;25.17;;;;;;;;;;5112582;28;20043;-70
2021/09/07 10:04:05;;;;;;;38.70;22.58;;;;;;;;;;5111089;28;20058;-70
2021/09/07 10:06:31;;;;;;;38.85;23.83;;;;;;;;;;5109388;28;20030;-70
2021/09/07 10:08:58;;;;;;;40.85;27.48;;;;;;;;;;5111986;28;20020;-70
2021/09/07 10:11:27;;;;;;;47.53;28.85;;;;;;;;;;5109530;28;20035;-70
2021/09/07 10:13:56;;;;;;;50.65;28.98;;;;;;;;;;5102170;28;20061;-70
2021/09/07 10:16:27;;;;;;;44.50;27.60;;;;;;;;;;5101901;28;20020;-70
2021/09/07 10:19:14;;;;;;;46.35;28.98;;;;;;;;;;5102857;28;20062;-69
2021/09/07 10:26:44;;;;;;;41.35;26.10;;;;;;;;;;5096273;28;20024;-69
2021/09/07 10:29:19;;;;;;;42.80;27.45;;;;;;;;;;5102333;28;20533;-69
2021/09/07 10:31:47;;;;;;;44.42;27.98;;;;;;;;;;5096342;28;20020;-70
2021/09/07 10:34:15;;;;;;;43.67;26.98;;;;;;;;;;5110097;28;20526;-70
2021/09/07 10:36:58;;;;;;;39.10;25.48;;;;;;;;;;5096841;28;20197;-69
2021/09/07 10:39:27;;;;;;;38.17;24.95;;;;;;;;;;5112064;28;20032;-68
2021/09/07 10:41:53;;;;;;;47.72;28.30;;;;;;;;;;5093084;28;20547;-70
2021/09/07 10:44:24;;;;;;;46.45;28.88;;;;;;;;;;5103091;28;20024;-70
2021/09/07 10:46:57;;;;;;;47.55;29.33;;;;;;;;;;5110170;28;20110;-69
2021/09/07 10:49:37;;;;;;;48.25;30.90;;;;;;;;;;5109486;28;20015;-69
2021/09/07 10:52:09;;;;;;;45.20;29.02;;;;;;;;;;5107158;28;20048;-68
2021/09/07 10:54:48;;;;;;;44.00;29.15;;;;;;;;;;5093696;28;20027;-70
2021/09/07 10:57:35;;;;;;;45.17;31.15;;;;;;;;;;5110841;28;20496;-69
2021/09/07 11:00:19;;;;;;;43.60;27.48;;;;;;;;;;5110917;28;20057;-70
2021/09/07 11:02:54;;;;;;;50.08;34.88;;;;;;;;;;5112098;28;20027;-69
2021/09/07 11:05:26;;;;;;;42.13;29.25;;;;;;;;;;5110719;28;20068;-70
2021/09/07 11:08:02;;;;;;;43.80;29.65;;;;;;;;;;5110232;28;20425;-70
2021/09/07 11:10:28;;;;;;;46.92;31.30;;;;;;;;;;5110992;28;20019;-69
2021/09/07 11:12:55;;;;;;;39.75;28.42;;;;;;;;;;5109222;28;20069;-70
2021/09/07 11:15:23;;;;;;;41.97;28.50;;;;;;;;;;5110410;28;20026;-70
2021/09/07 11:17:57;;;;;;;39.67;26.52;;;;;;;;;;5108464;28;20024;-69
2021/09/07 11:20:25;;;;;;;37.03;25.60;;;;;;;;;;5099898;28;20028;-69
2021/09/07 11:22:53;;;;;;;47.05;31.48;;;;;;;;;;5088214;28;20044;-69
2021/09/07 11:25:19;;;;;;;40.95;27.92;;;;;;;;;;5100525;28;20023;-69
2021/09/07 11:27:48;;;;;;;41.95;26.25;;;;;;;;;;5094506;28;20505;-68
2021/09/07 11:30:31;;;;;;;39.67;28.35;;;;;;;;;;5077922;28;20559;-68
2021/09/07 11:32:58;;;;;;;36.97;24.33;;;;;;;;;;5100976;28;20119;-69
2021/09/07 11:35:24;;;;;;;36.95;25.35;;;;;;;;;;5105960;28;20023;-69
2021/09/07 11:37:51;;;;;;;37.10;24.08;;;;;;;;;;5074009;28;20012;-70
2021/09/07 11:40:17;;;;;;;39.67;27.70;;;;;;;;;;5077058;28;20115;-69
2021/09/07 11:42:44;;;;;;;39.70;26.30;;;;;;;;;;5102381;28;20039;-70
2021/09/07 11:45:17;;;;;;;34.20;25.05;;;;;;;;;;5075755;28;20028;-69
2021/09/07 11:47:44;;;;;;;40.00;26.33;;;;;;;;;;5104048;28;20099;-70
2021/09/07 11:50:15;;;;;;;32.00;23.85;;;;;;;;;;5110669;28;20114;-69
2021/09/07 11:52:41;;;;;;;31.42;22.13;;;;;;;;;;5107615;28;20052;-69
2021/09/07 11:55:29;;;;;;;33.80;23.92;;;;;;;;;;5092378;28;20024;-69
2021/09/07 11:57:56;;;;;;;35.72;20.10;;;;;;;;;;5096980;28;20104;-69
2021/09/07 12:00:22;;;;;;;28.90;20.08;;;;;;;;;;5103473;28;20027;-69
2021/09/07 12:02:48;;;;;;;35.10;22.73;;;;;;;;;;5105162;28;20026;-69
2021/09/07 12:05:14;;;;;;;31.40;21.83;;;;;;;;;;5108358;28;20571;-69
2021/09/07 12:07:55;;;;;;;36.72;25.67;;;;;;;;;;5104778;28;20023;-68
2021/09/07 12:10:21;;;;;;;28.50;19.95;;;;;;;;;;5109870;28;20087;-68
2021/09/07 12:12:47;;;;;;;26.42;19.50;;;;;;;;;;5104026;28;20031;-68
2021/09/07 12:15:16;;;;;;;29.80;20.75;;;;;;;;;;5098520;28;20028;-68
2021/09/07 12:17:45;;;;;;;30.77;21.02;;;;;;;;;;5105669;28;20497;-69
2021/09/07 12:20:14;;;;;;;29.77;22.75;;;;;;;;;;5110767;28;20039;-68
2021/09/07 12:22:40;;;;;;;33.15;24.50;;;;;;;;;;5113108;28;20032;-69
2021/09/07 12:25:12;;;;;;;32.15;24.67;;;;;;;;;;5107903;28;20050;-69
2021/09/07 12:27:38;;;;;;;;;;;;;;;;;;5111989;28;20289;-69
2021/09/07 12:30:07;;;;;;;32.60;22.60;;;;;;;;;;5095541;28;20157;-69
2021/09/07 12:32:45;;;;;;;28.67;20.50;;;;;;;;;;5113763;28;20489;-69
2021/09/07 12:35:11;;;;;;;30.83;21.25;;;;;;;;;;5109666;28;20519;-69
2021/09/07 12:37:37;;;;;;;31.58;21.83;;;;;;;;;;5111473;28;20469;-69
2021/09/07 12:40:03;;;;;;;30.63;20.38;;;;;;;;;;5114093;28;20051;-69
2021/09/07 12:42:29;;;;;;;32.88;22.10;;;;;;;;;;5114093;28;20030;-69
2021/09/07 12:44:55;;;;;;;27.83;18.67;;;;;;;;;;5113945;28;20030;-69
2021/09/07 12:47:21;;;;;;;33.78;20.75;;;;;;;;;;5105761;28;20073;-69
2021/09/07 12:49:47;;;;;;;31.23;20.15;;;;;;;;;;5113259;28;20028;-69
2021/09/07 12:52:13;;;;;;;25.33;17.90;;;;;;;;;;5112736;28;20044;-68
2021/09/07 12:54:39;;;;;;;33.85;23.30;;;;;;;;;;5113605;28;20024;-69
2021/09/07 12:57:05;;;;;;;29.70;19.40;;;;;;;;;;5111304;28;20023;-69
2021/09/07 12:59:31;;;;;;;27.90;22.10;;;;;;;;;;5094158;28;20518;-69
2021/09/07 13:01:57;;;;;;;27.13;15.93;;;;;;;;;;5112765;27;20138;-69
2021/09/07 13:04:24;;;;;;;23.63;14.23;;;;;;;;;;5113763;28;20028;-69
2021/09/07 13:06:51;;;;;;;24.60;16.13;;;;;;;;;;5107841;27;20023;-69
2021/09/07 13:09:17;;;;;;;25.30;19.52;;;;;;;;;;5110100;28;20028;-69
2021/09/07 13:11:43;;;;;;;25.67;19.75;;;;;;;;;;5110417;28;20035;-69
2021/09/07 13:14:09;;;;;;;24.88;18.55;;;;;;;;;;5112196;28;20027;-69
2021/09/07 13:16:35;;;;;;;22.40;16.35;;;;;;;;;;5111013;28;20105;-69
2021/09/07 13:19:01;;;;;;;20.27;16.60;;;;;;;;;;5112978;28;20024;-69
2021/09/07 13:21:28;;;;;;;23.23;16.33;;;;;;;;;;5110948;27;20027;-69
2021/09/07 13:23:54;;;;;;;19.52;16.23;;;;;;;;;;5113123;28;20023;-69
2021/09/07 13:26:20;;;;;;;30.92;23.77;;;;;;;;;;5107334;28;20087;-69
2021/09/07 13:28:46;;;;;;;33.42;25.73;;;;;;;;;;5108026;28;20072;-68
2021/09/07 13:31:12;;;;;;;34.63;23.88;;;;;;;;;;5109480;28;20032;-68
2021/09/07 13:33:39;;;;;;;31.13;19.60;;;;;;;;;;5113572;28;20160;-68
2021/09/07 13:36:05;;;;;;;32.03;20.67;;;;;;;;;;5102709;28;20559;-69
2021/09/07 13:38:31;;;;;;;27.30;18.75;;;;;;;;;;5103064;28;20370;-69
2021/09/07 13:40:57;;;;;;;32.92;18.92;;;;;;;;;;5113117;28;20046;-69
2021/09/07 13:43:23;;;;;;;32.20;16.85;;;;;;;;;;5111647;28;20084;-70
2021/09/07 13:45:49;;;;;;;16.10;12.48;;;;;;;;;;5093926;28;20397;-70
2021/09/07 13:48:15;;;;;;;16.40;12.32;;;;;;;;;;5110307;28;20020;-69
2021/09/07 13:50:42;;;;;;;21.92;16.42;;;;;;;;;;5096448;28;20020;-69
2021/09/07 13:53:08;;;;;;;19.05;12.57;;;;;;;;;;5111206;28;20035;-69
2021/09/07 13:55:34;;;;;;;19.38;13.85;;;;;;;;;;5113212;28;20135;-70
2021/09/07 13:58:00;;;;;;;15.38;13.32;;;;;;;;;;5080599;28;20020;-70
2021/09/07 14:00:26;;;;;;;15.40;11.15;;;;;;;;;;5103767;28;20020;-69
2021/09/07 14:02:52;;;;;;;17.38;12.05;;;;;;;;;;5093217;28;20035;-70
2021/09/07 14:05:18;;;;;;;16.73;13.60;;;;;;;;;;5093274;28;20417;-69
2021/09/07 14:07:44;;;;;;;16.88;13.15;;;;;;;;;;5109970;28;20024;-70
2021/09/07 14:10:13;;;;;;;15.10;13.43;;;;;;;;;;5111321;28;20031;-69
2021/09/07 14:12:39;;;;;;;15.13;13.52;;;;;;;;;;5111392;28;20023;-70
2021/09/07 14:15:06;;;;;;;18.20;13.25;;;;;;;;;;5107114;28;20020;-69
2021/09/07 14:17:32;;;;;;;16.25;12.93;;;;;;;;;;5101513;28;20515;-70
2021/09/07 14:19:58;;;;;;;15.75;11.93;;;;;;;;;;5110073;28;20028;-72
2021/09/07 14:22:24;;;;;;;14.52;12.43;;;;;;;;;;5109078;28;20027;-71